Time;durP1;ratioP1;P1;durP2;ratioP2;P2;SDS_P1;SDS_P2;PMS_P1;PMS_P2;Temp;Humidity;BMP_temperature;BMP_pressure;BME280_temperature;BME280_humidity;BME280_pressure;Samples;Min_cycle;Max_cycle;Signal;HPM_P1;HPM_P2
2022/05/20 00:01:03;;;;;;;20.80;10.90;;;;;;;;;;4929886;29;20146;-66
2022/05/20 00:03:32;;;;;;;17.52;9.57;;;;;;;;;;4928641;29;20131;-66
2022/05/20 00:06:00;;;;;;;17.75;9.13;;;;;;;;;;4932545;29;20530;-66
2022/05/20 00:08:27;;;;;;;15.45;8.75;;;;;;;;;;4928401;29;20199;-66
2022/05/20 00:10:54;;;;;;;14.90;9.18;;;;;;;;;;4935192;29;20529;-66
2022/05/20 00:13:22;;;;;;;14.75;8.80;;;;;;;;;;4929853;29;20106;-66
2022/05/20 00:15:49;;;;;;;16.33;9.80;;;;;;;;;;4942537;28;20430;-66
2022/05/20 00:18:16;;;;;;;17.00;9.88;;;;;;;;;;4946963;29;20113;-66
2022/05/20 00:20:45;;;;;;;17.00;9.73;;;;;;;;;;4946241;29;20054;-66
2022/05/20 00:23:12;;;;;;;15.63;8.82;;;;;;;;;;4928156;29;20059;-66
2022/05/20 00:25:48;;;;;;;15.52;8.50;;;;;;;;;;4926558;29;20146;-66
2022/05/20 00:28:18;;;;;;;16.15;9.45;;;;;;;;;;4946498;29;20043;-66
2022/05/20 00:30:46;;;;;;;12.35;8.98;;;;;;;;;;4929068;29;20071;-66
2022/05/20 00:33:13;;;;;;;14.52;9.73;;;;;;;;;;4945553;29;20063;-66
2022/05/20 00:35:41;;;;;;;16.73;9.75;;;;;;;;;;4943727;29;20065;-66
2022/05/20 00:38:09;;;;;;;16.38;9.75;;;;;;;;;;4931868;29;20051;-66
2022/05/20 00:40:37;;;;;;;17.08;10.70;;;;;;;;;;4924251;28;20071;-66
2022/05/20 00:43:12;;;;;;;16.63;10.52;;;;;;;;;;4943910;28;20106;-66
2022/05/20 00:45:39;;;;;;;23.65;11.00;;;;;;;;;;4941721;28;20574;-66
2022/05/20 00:48:07;;;;;;;17.70;10.20;;;;;;;;;;4941469;29;20396;-66
2022/05/20 00:50:34;;;;;;;18.83;10.68;;;;;;;;;;4947501;28;20047;-66
2022/05/20 00:53:01;;;;;;;19.15;9.88;;;;;;;;;;4951386;28;20095;-66
2022/05/20 00:55:31;;;;;;;20.75;10.32;;;;;;;;;;4929246;29;20059;-66
2022/05/20 00:58:00;;;;;;;21.17;10.55;;;;;;;;;;4926308;29;20074;-66
2022/05/20 01:00:29;;;;;;;19.40;10.27;;;;;;;;;;4953824;28;20836;-66
2022/05/20 01:02:57;;;;;;;21.77;9.18;;;;;;;;;;4953106;28;20055;-66
2022/05/20 01:05:26;;;;;;;20.08;10.05;;;;;;;;;;4952065;28;20043;-66
2022/05/20 01:07:54;;;;;;;16.08;9.70;;;;;;;;;;4952088;28;20059;-66
2022/05/20 01:10:21;;;;;;;16.80;10.70;;;;;;;;;;4950343;29;20070;-66
2022/05/20 01:12:52;;;;;;;18.13;10.48;;;;;;;;;;4935970;29;20454;-66
2022/05/20 01:15:19;;;;;;;17.23;10.40;;;;;;;;;;4933045;29;20071;-66
2022/05/20 01:17:47;;;;;;;19.08;9.98;;;;;;;;;;4934453;29;20051;-66
2022/05/20 01:20:17;;;;;;;20.38;10.57;;;;;;;;;;4945529;28;20484;-66
2022/05/20 01:22:49;;;;;;;21.05;11.13;;;;;;;;;;4936341;29;20051;-66
2022/05/20 01:25:17;;;;;;;23.83;12.13;;;;;;;;;;4932355;29;20059;-66
2022/05/20 01:27:46;;;;;;;18.45;11.80;;;;;;;;;;4925742;29;20056;-66
2022/05/20 01:30:14;;;;;;;23.48;12.73;;;;;;;;;;4928304;29;20064;-66
2022/05/20 01:32:41;;;;;;;20.40;12.73;;;;;;;;;;4927038;29;20044;-66
2022/05/20 01:35:12;;;;;;;19.35;12.27;;;;;;;;;;4924822;29;20044;-66
2022/05/20 01:37:39;;;;;;;19.42;12.25;;;;;;;;;;4925406;29;20070;-66
2022/05/20 01:40:09;;;;;;;25.50;12.30;;;;;;;;;;4931695;29;20075;-66
2022/05/20 01:42:38;;;;;;;14.95;10.65;;;;;;;;;;4934834;29;20460;-66
2022/05/20 01:45:08;;;;;;;17.48;10.77;;;;;;;;;;4931101;29;20107;-66
2022/05/20 01:47:39;;;;;;;21.00;12.35;;;;;;;;;;4931530;29;20483;-66
2022/05/20 01:50:08;;;;;;;16.33;10.63;;;;;;;;;;4932606;29;20070;-66
2022/05/20 01:52:38;;;;;;;22.40;12.13;;;;;;;;;;4933969;29;20055;-66
2022/05/20 01:55:09;;;;;;;16.75;10.90;;;;;;;;;;4930676;29;20048;-66
2022/05/20 01:57:39;;;;;;;20.17;12.95;;;;;;;;;;4931089;29;20055;-66
2022/05/20 02:00:09;;;;;;;19.20;12.75;;;;;;;;;;4930056;29;20538;-66
2022/05/20 02:02:38;;;;;;;24.77;13.90;;;;;;;;;;4932687;29;20051;-66
2022/05/20 02:05:09;;;;;;;16.75;11.75;;;;;;;;;;4931759;29;20043;-66
2022/05/20 02:07:38;;;;;;;19.60;12.05;;;;;;;;;;4926839;29;20058;-66
2022/05/20 02:10:09;;;;;;;19.13;11.13;;;;;;;;;;4931549;29;20509;-66
2022/05/20 02:12:41;;;;;;;15.52;12.23;;;;;;;;;;4928626;29;20099;-66
2022/05/20 02:15:11;;;;;;;19.88;11.10;;;;;;;;;;4945664;29;20059;-66
2022/05/20 02:17:40;;;;;;;19.10;11.57;;;;;;;;;;4949315;28;20051;-66
2022/05/20 02:20:11;;;;;;;21.13;12.55;;;;;;;;;;4947278;28;20047;-66
2022/05/20 02:22:40;;;;;;;16.95;11.80;;;;;;;;;;4952445;28;20047;-67
2022/05/20 02:25:10;;;;;;;21.20;12.60;;;;;;;;;;4950312;28;20070;-67
2022/05/20 02:27:41;;;;;;;21.67;11.65;;;;;;;;;;4951349;28;20049;-67
2022/05/20 02:30:10;;;;;;;19.77;13.40;;;;;;;;;;4948566;28;20063;-67
2022/05/20 02:32:39;;;;;;;30.73;15.82;;;;;;;;;;4949584;28;20043;-67
2022/05/20 02:35:07;;;;;;;17.65;11.85;;;;;;;;;;4931118;28;20507;-67
2022/05/20 02:37:36;;;;;;;16.92;10.50;;;;;;;;;;4953576;28;20395;-67
2022/05/20 02:40:04;;;;;;;18.80;10.57;;;;;;;;;;4925816;29;20498;-67
2022/05/20 02:42:31;;;;;;;17.67;11.68;;;;;;;;;;4950076;28;20043;-67
2022/05/20 02:45:01;;;;;;;20.75;12.00;;;;;;;;;;4952725;28;20059;-67
2022/05/20 02:47:31;;;;;;;17.35;10.15;;;;;;;;;;4950771;28;20055;-67
2022/05/20 02:49:58;;;;;;;22.13;12.07;;;;;;;;;;4935911;29;20235;-67
2022/05/20 02:52:25;;;;;;;20.45;11.43;;;;;;;;;;4944227;28;20052;-67
2022/05/20 02:54:53;;;;;;;19.05;11.65;;;;;;;;;;4950508;28;20414;-67
2022/05/20 02:57:20;;;;;;;24.13;12.48;;;;;;;;;;4926290;29;20770;-67
2022/05/20 03:05:15;;;;;;;23.30;13.52;;;;;;;;;;4948202;28;20054;-67
2022/05/20 03:07:42;;;;;;;22.77;14.05;;;;;;;;;;4948463;29;20051;-67
2022/05/20 03:10:10;;;;;;;27.58;14.52;;;;;;;;;;4951468;28;20055;-67
2022/05/20 03:12:38;;;;;;;16.70;11.48;;;;;;;;;;4932649;29;20071;-67
2022/05/20 03:15:05;;;;;;;18.63;11.68;;;;;;;;;;4950821;28;20061;-67
2022/05/20 03:17:34;;;;;;;19.38;12.57;;;;;;;;;;4947788;28;20051;-67
2022/05/20 03:20:01;;;;;;;18.83;13.02;;;;;;;;;;4950240;28;20451;-67
2022/05/20 03:22:28;;;;;;;22.48;13.77;;;;;;;;;;4942989;28;20047;-67
2022/05/20 03:24:56;;;;;;;24.30;14.48;;;;;;;;;;4952441;28;20067;-67
2022/05/20 03:27:23;;;;;;;17.85;12.23;;;;;;;;;;4946871;29;20039;-67
2022/05/20 03:29:50;;;;;;;19.30;13.30;;;;;;;;;;4950356;28;20073;-67
2022/05/20 03:32:17;;;;;;;22.23;12.05;;;;;;;;;;4930849;29;20055;-67
2022/05/20 03:34:46;;;;;;;20.05;12.05;;;;;;;;;;4928813;29;20066;-67
2022/05/20 03:37:13;;;;;;;15.85;11.98;;;;;;;;;;4946095;28;20047;-67
2022/05/20 03:39:40;;;;;;;20.90;12.68;;;;;;;;;;4930485;29;20114;-67
2022/05/20 03:42:08;;;;;;;23.40;13.10;;;;;;;;;;4946247;28;20085;-67
2022/05/20 03:44:35;;;;;;;18.42;12.32;;;;;;;;;;4932447;28;20509;-67
2022/05/20 03:47:02;;;;;;;24.27;15.88;;;;;;;;;;4928612;29;21822;-67
2022/05/20 03:49:30;;;;;;;19.98;12.43;;;;;;;;;;4930682;29;20065;-67
2022/05/20 03:51:59;;;;;;;18.52;12.23;;;;;;;;;;4944466;28;20059;-67
2022/05/20 03:54:27;;;;;;;28.27;15.73;;;;;;;;;;4940637;28;20062;-67
2022/05/20 03:56:54;;;;;;;23.67;14.15;;;;;;;;;;4938800;28;20063;-67
2022/05/20 03:59:22;;;;;;;20.70;13.88;;;;;;;;;;4936069;29;20797;-67
2022/05/20 04:01:57;;;;;;;18.48;13.05;;;;;;;;;;4937782;28;20174;-67
2022/05/20 04:04:25;;;;;;;20.67;13.80;;;;;;;;;;4937446;28;20043;-67
2022/05/20 04:06:53;;;;;;;20.95;13.05;;;;;;;;;;4917195;29;20055;-67
2022/05/20 04:09:21;;;;;;;20.73;12.30;;;;;;;;;;4916249;29;20055;-67
2022/05/20 04:11:50;;;;;;;22.98;13.82;;;;;;;;;;4936795;28;20047;-67
2022/05/20 04:14:17;;;;;;;19.23;12.30;;;;;;;;;;4934824;28;20063;-67
2022/05/20 04:16:44;;;;;;;22.55;13.82;;;;;;;;;;4936072;28;20455;-67
2022/05/20 04:19:11;;;;;;;19.50;12.32;;;;;;;;;;4936566;28;20464;-67
2022/05/20 04:21:39;;;;;;;23.30;13.88;;;;;;;;;;4935918;28;20110;-67
2022/05/20 04:24:06;;;;;;;23.50;13.38;;;;;;;;;;4941540;28;20402;-67
2022/05/20 04:26:35;;;;;;;25.17;14.55;;;;;;;;;;4942283;28;20098;-67
2022/05/20 04:29:02;;;;;;;23.75;13.77;;;;;;;;;;4941027;28;20162;-67
2022/05/20 04:31:29;;;;;;;24.23;13.70;;;;;;;;;;4924687;28;20058;-67
2022/05/20 04:33:57;;;;;;;20.05;13.45;;;;;;;;;;4944073;28;20102;-67
2022/05/20 04:36:24;;;;;;;23.15;14.25;;;;;;;;;;4928602;28;20062;-67
2022/05/20 04:38:51;;;;;;;25.13;14.48;;;;;;;;;;4944586;28;20055;-66
2022/05/20 04:46:58;;;;;;;26.63;16.58;;;;;;;;;;4945406;28;20070;-66
2022/05/20 04:49:26;;;;;;;24.13;15.02;;;;;;;;;;4946029;28;20114;-66
2022/05/20 04:51:53;;;;;;;24.25;16.17;;;;;;;;;;4947153;28;20055;-66
2022/05/20 04:57:06;;;;;;;30.77;18.35;;;;;;;;;;4946870;28;20499;-66
2022/05/20 04:59:36;;;;;;;21.27;15.77;;;;;;;;;;4946893;28;20110;-66
2022/05/20 05:02:03;;;;;;;26.30;16.85;;;;;;;;;;4946872;28;21424;-66
2022/05/20 05:04:31;;;;;;;29.83;15.23;;;;;;;;;;4928640;28;20046;-66
2022/05/20 05:06:58;;;;;;;28.38;18.05;;;;;;;;;;4943995;28;20051;-66
2022/05/20 05:09:25;;;;;;;27.05;16.85;;;;;;;;;;4946355;28;20047;-66
2022/05/20 05:11:53;;;;;;;28.20;17.95;;;;;;;;;;4931371;28;20522;-66
2022/05/20 05:14:20;;;;;;;29.17;17.00;;;;;;;;;;4942581;28;20067;-66
2022/05/20 05:16:49;;;;;;;25.23;15.35;;;;;;;;;;4945474;28;20055;-67
2022/05/20 05:19:16;;;;;;;25.52;15.18;;;;;;;;;;4927630;28;20055;-67
2022/05/20 05:21:43;;;;;;;20.48;13.20;;;;;;;;;;4946132;28;20055;-67
2022/05/20 05:24:10;;;;;;;23.42;15.00;;;;;;;;;;4944859;28;20047;-67
2022/05/20 05:26:40;;;;;;;22.33;16.30;;;;;;;;;;4929092;28;20111;-67
2022/05/20 05:29:07;;;;;;;26.42;17.67;;;;;;;;;;4946409;28;20091;-66
2022/05/20 05:31:35;;;;;;;30.30;16.92;;;;;;;;;;4947425;28;20059;-66
2022/05/20 05:34:03;;;;;;;28.20;16.17;;;;;;;;;;4942811;28;20058;-66
2022/05/20 05:36:31;;;;;;;25.48;13.80;;;;;;;;;;4926041;28;20055;-66
2022/05/20 05:38:58;;;;;;;16.08;9.55;;;;;;;;;;4945253;28;20047;-66
2022/05/20 05:41:25;;;;;;;18.10;8.48;;;;;;;;;;4948629;28;20051;-66
2022/05/20 05:43:52;;;;;;;21.85;12.57;;;;;;;;;;4943317;28;20055;-66
2022/05/20 05:46:20;;;;;;;19.95;9.85;;;;;;;;;;4929845;29;20055;-66
2022/05/20 05:48:47;;;;;;;20.42;11.45;;;;;;;;;;4947267;28;20398;-66
2022/05/20 05:51:15;;;;;;;17.08;10.57;;;;;;;;;;4944801;28;20051;-66
2022/05/20 05:53:43;;;;;;;16.83;9.27;;;;;;;;;;4929194;29;20138;-66
2022/05/20 05:56:10;;;;;;;18.13;8.98;;;;;;;;;;4945682;28;20778;-66
2022/05/20 05:58:38;;;;;;;16.30;8.98;;;;;;;;;;4947191;28;20074;-66
2022/05/20 06:01:06;;;;;;;16.25;9.57;;;;;;;;;;4944806;28;20065;-66
2022/05/20 06:03:33;;;;;;;15.65;8.43;;;;;;;;;;4946635;28;20058;-66
2022/05/20 06:06:00;;;;;;;19.90;8.50;;;;;;;;;;4944978;28;20059;-66
2022/05/20 06:08:29;;;;;;;18.63;6.82;;;;;;;;;;4947580;28;20074;-66
2022/05/20 06:10:56;;;;;;;19.67;8.75;;;;;;;;;;4947755;28;20051;-66
2022/05/20 06:13:24;;;;;;;13.50;6.28;;;;;;;;;;4928848;28;20054;-66
2022/05/20 06:15:52;;;;;;;15.50;6.75;;;;;;;;;;4926193;28;20082;-66
2022/05/20 06:18:19;;;;;;;25.13;7.72;;;;;;;;;;4925324;28;20447;-66
2022/05/20 06:20:47;;;;;;;10.63;4.63;;;;;;;;;;4942645;28;20067;-66
2022/05/20 06:23:14;;;;;;;17.27;5.93;;;;;;;;;;4928380;28;20055;-66
2022/05/20 06:25:42;;;;;;;13.18;6.10;;;;;;;;;;4946726;28;21297;-66
2022/05/20 06:28:11;;;;;;;14.93;6.15;;;;;;;;;;4926894;29;20055;-66
2022/05/20 06:30:39;;;;;;;12.88;6.47;;;;;;;;;;4945188;28;20039;-66
2022/05/20 06:33:06;;;;;;;15.25;5.25;;;;;;;;;;4926625;28;20061;-66
2022/05/20 06:41:13;;;;;;;14.57;6.25;;;;;;;;;;4924252;28;20047;-66
2022/05/20 06:43:41;;;;;;;15.20;6.43;;;;;;;;;;4946844;28;20051;-66
2022/05/20 06:46:10;;;;;;;16.10;6.88;;;;;;;;;;4944052;28;20133;-66
2022/05/20 06:48:39;;;;;;;11.75;5.38;;;;;;;;;;4945791;28;20126;-66
2022/05/20 06:51:06;;;;;;;10.55;6.05;;;;;;;;;;4947443;28;20059;-66
2022/05/20 06:53:33;;;;;;;12.43;4.82;;;;;;;;;;4945135;28;20062;-66
2022/05/20 06:56:00;;;;;;;12.95;5.10;;;;;;;;;;4947276;28;20051;-66
2022/05/20 06:58:30;;;;;;;16.85;5.45;;;;;;;;;;4942977;28;20055;-66
2022/05/20 07:00:58;;;;;;;11.98;6.45;;;;;;;;;;4948870;28;20051;-66
2022/05/20 07:03:25;;;;;;;12.95;5.07;;;;;;;;;;4930967;29;20061;-66
2022/05/20 07:05:53;;;;;;;13.48;4.30;;;;;;;;;;4948842;28;20059;-66
2022/05/20 07:08:20;;;;;;;15.77;5.00;;;;;;;;;;4931231;29;20114;-66
2022/05/20 07:10:47;;;;;;;15.98;4.95;;;;;;;;;;4948907;28;20055;-67
2022/05/20 07:13:14;;;;;;;13.27;4.70;;;;;;;;;;4950203;28;20135;-67
2022/05/20 07:15:43;;;;;;;15.27;5.13;;;;;;;;;;4948752;28;20162;-67
2022/05/20 07:18:10;;;;;;;12.25;4.75;;;;;;;;;;4949321;28;20282;-67
2022/05/20 07:20:37;;;;;;;11.50;5.45;;;;;;;;;;4932498;29;20192;-67
2022/05/20 07:23:04;;;;;;;16.48;4.60;;;;;;;;;;4948701;28;20053;-67
2022/05/20 07:25:33;;;;;;;16.80;4.32;;;;;;;;;;4931295;29;20078;-67
2022/05/20 07:28:01;;;;;;;8.60;3.63;;;;;;;;;;4952108;28;20126;-67
2022/05/20 07:30:31;;;;;;;7.72;3.40;;;;;;;;;;4948756;29;20154;-67
2022/05/20 07:32:59;;;;;;;13.70;3.80;;;;;;;;;;4930076;29;20102;-67
2022/05/20 07:35:27;;;;;;;8.02;3.70;;;;;;;;;;4948326;28;20407;-67
2022/05/20 07:37:54;;;;;;;15.40;4.13;;;;;;;;;;4949841;28;20506;-67
2022/05/20 07:40:22;;;;;;;11.10;2.92;;;;;;;;;;4943189;29;20062;-67
2022/05/20 07:42:49;;;;;;;9.90;3.72;;;;;;;;;;4936140;28;20051;-67
2022/05/20 07:45:18;;;;;;;10.38;3.33;;;;;;;;;;4948566;28;20145;-67
2022/05/20 07:47:45;;;;;;;9.98;3.03;;;;;;;;;;4934694;29;20059;-67
2022/05/20 07:50:14;;;;;;;11.85;3.35;;;;;;;;;;4931163;29;20047;-67
2022/05/20 07:55:30;;;;;;;9.98;3.33;;;;;;;;;;4948304;29;20051;-67
2022/05/20 07:57:57;;;;;;;9.57;3.80;;;;;;;;;;4949017;28;20044;-67
2022/05/20 08:00:25;;;;;;;10.40;4.10;;;;;;;;;;4950116;28;20055;-67
2022/05/20 08:02:53;;;;;;;8.10;3.92;;;;;;;;;;4950394;28;20050;-67
2022/05/20 08:05:21;;;;;;;7.43;3.83;;;;;;;;;;4948320;28;20055;-67
2022/05/20 08:07:49;;;;;;;8.82;3.42;;;;;;;;;;4945182;28;20151;-67
2022/05/20 08:10:22;;;;;;;9.85;3.90;;;;;;;;;;4945552;28;20055;-67
2022/05/20 08:12:50;;;;;;;9.88;4.00;;;;;;;;;;4944564;28;20102;-67
2022/05/20 08:15:18;;;;;;;13.90;4.20;;;;;;;;;;4945364;28;20055;-67
2022/05/20 08:17:45;;;;;;;12.63;4.13;;;;;;;;;;4944679;29;20125;-67
2022/05/20 08:20:16;;;;;;;9.55;3.60;;;;;;;;;;4928569;29;20043;-67
2022/05/20 08:22:45;;;;;;;8.65;3.47;;;;;;;;;;4945467;28;20049;-67
2022/05/20 08:25:12;;;;;;;6.93;4.00;;;;;;;;;;4943345;28;20062;-67
2022/05/20 08:27:40;;;;;;;10.88;4.57;;;;;;;;;;4940929;29;20123;-67
2022/05/20 08:30:08;;;;;;;13.73;5.05;;;;;;;;;;4944238;28;20062;-67
2022/05/20 08:32:36;;;;;;;9.20;4.30;;;;;;;;;;4944364;28;20043;-67
2022/05/20 08:35:04;;;;;;;10.70;4.90;;;;;;;;;;4941881;28;20165;-67
2022/05/20 08:37:33;;;;;;;9.85;4.90;;;;;;;;;;4926613;29;20086;-66
2022/05/20 08:40:01;;;;;;;10.63;5.05;;;;;;;;;;4944005;28;20071;-66
2022/05/20 08:42:30;;;;;;;11.60;4.72;;;;;;;;;;4944527;28;20403;-66
2022/05/20 08:44:58;;;;;;;7.93;4.25;;;;;;;;;;4927353;29;20447;-66
2022/05/20 08:47:26;;;;;;;11.25;4.60;;;;;;;;;;4943995;28;20502;-66
2022/05/20 08:49:55;;;;;;;9.13;4.40;;;;;;;;;;4924742;29;20058;-66
2022/05/20 08:52:22;;;;;;;11.18;4.20;;;;;;;;;;4942994;28;20062;-66
2022/05/20 08:54:49;;;;;;;9.13;4.30;;;;;;;;;;4925536;29;20051;-66
2022/05/20 08:57:20;;;;;;;9.73;3.95;;;;;;;;;;4943826;28;20056;-66
2022/05/20 08:59:48;;;;;;;9.43;4.30;;;;;;;;;;4927677;29;20059;-66
2022/05/20 09:02:15;;;;;;;10.77;4.70;;;;;;;;;;4944217;28;20081;-66
2022/05/20 09:04:42;;;;;;;7.05;4.00;;;;;;;;;;4944217;29;20051;-66
2022/05/20 09:07:11;;;;;;;9.73;4.07;;;;;;;;;;4943400;28;20051;-66
2022/05/20 09:09:43;;;;;;;7.32;3.85;;;;;;;;;;4945013;28;20044;-66
2022/05/20 09:12:11;;;;;;;12.55;4.07;;;;;;;;;;4941732;28;20043;-67
2022/05/20 09:17:26;;;;;;;10.20;3.38;;;;;;;;;;4940740;28;20657;-67
2022/05/20 09:19:58;;;;;;;8.77;3.60;;;;;;;;;;4946550;28;20066;-67
2022/05/20 09:22:27;;;;;;;10.25;3.60;;;;;;;;;;4945404;28;20055;-67
2022/05/20 09:24:55;;;;;;;10.02;3.65;;;;;;;;;;4948615;28;20089;-66
2022/05/20 09:27:27;;;;;;;8.40;3.50;;;;;;;;;;4948476;28;20534;-66
2022/05/20 09:29:58;;;;;;;9.45;4.00;;;;;;;;;;4948140;28;20051;-66
2022/05/20 09:32:28;;;;;;;8.93;3.97;;;;;;;;;;4947943;28;20059;-66
2022/05/20 09:34:57;;;;;;;7.47;3.67;;;;;;;;;;4942690;28;20110;-67
2022/05/20 09:37:27;;;;;;;8.32;3.67;;;;;;;;;;4947220;28;20055;-67
2022/05/20 09:39:54;;;;;;;9.85;4.32;;;;;;;;;;4949455;28;20047;-67
2022/05/20 09:42:22;;;;;;;11.70;3.78;;;;;;;;;;4945898;28;20054;-66
2022/05/20 09:44:51;;;;;;;7.72;3.65;;;;;;;;;;4946394;29;20050;-66
2022/05/20 09:47:25;;;;;;;9.02;4.00;;;;;;;;;;4947979;28;20066;-66
2022/05/20 09:49:54;;;;;;;8.93;3.97;;;;;;;;;;4949912;29;20571;-66
2022/05/20 09:52:32;;;;;;;8.18;3.67;;;;;;;;;;4933551;29;20059;-66
2022/05/20 09:55:02;;;;;;;9.00;3.85;;;;;;;;;;4951069;28;20050;-67
2022/05/20 09:57:31;;;;;;;9.68;4.10;;;;;;;;;;4949699;28;20039;-66
2022/05/20 10:00:00;;;;;;;8.15;4.25;;;;;;;;;;4950282;28;20087;-66
2022/05/20 10:02:31;;;;;;;10.43;4.53;;;;;;;;;;4950156;28;20502;-66
2022/05/20 10:05:04;;;;;;;9.82;4.20;;;;;;;;;;4951291;28;20058;-66
2022/05/20 10:07:36;;;;;;;9.43;4.47;;;;;;;;;;4951685;28;20554;-66
2022/05/20 10:10:08;;;;;;;11.07;4.07;;;;;;;;;;4952840;28;20095;-66
2022/05/20 10:12:38;;;;;;;8.63;3.30;;;;;;;;;;4954236;28;20622;-66
2022/05/20 10:15:12;;;;;;;8.88;3.75;;;;;;;;;;4950689;28;20055;-67
2022/05/20 10:18:03;;;;;;;11.73;4.15;;;;;;;;;;4959805;28;20144;-67
2022/05/20 10:20:33;;;;;;;12.10;4.60;;;;;;;;;;4950435;28;20055;-67
2022/05/20 10:23:05;;;;;;;9.48;4.13;;;;;;;;;;4949089;28;20145;-67
2022/05/20 10:25:36;;;;;;;9.95;4.03;;;;;;;;;;4950990;28;20049;-67
2022/05/20 10:28:06;;;;;;;10.77;4.70;;;;;;;;;;4949454;28;20502;-67
2022/05/20 10:33:25;;;;;;;8.00;3.45;;;;;;;;;;4949513;28;20526;-67
2022/05/20 10:36:10;;;;;;;10.98;3.28;;;;;;;;;;4947604;28;20087;-67
2022/05/20 10:38:48;;;;;;;5.82;3.20;;;;;;;;;;4950649;28;20051;-67
2022/05/20 10:41:20;;;;;;;7.00;3.38;;;;;;;;;;4949230;28;20130;-66
2022/05/20 10:49:35;;;;;;;7.00;3.28;;;;;;;;;;4947670;28;20530;-67
2022/05/20 10:52:07;;;;;;;7.97;3.63;;;;;;;;;;4952315;28;20122;-67
2022/05/20 10:54:43;;;;;;;10.10;3.80;;;;;;;;;;4928470;29;20058;-66
2022/05/20 10:57:22;;;;;;;8.07;3.33;;;;;;;;;;4950272;28;20131;-66
2022/05/20 10:59:57;;;;;;;7.45;3.72;;;;;;;;;;4950731;28;20462;-66
2022/05/20 11:02:32;;;;;;;6.85;4.00;;;;;;;;;;4948306;28;20495;-66
2022/05/20 11:05:13;;;;;;;6.32;3.70;;;;;;;;;;4948114;29;20047;-66
2022/05/20 11:07:56;;;;;;;6.80;3.25;;;;;;;;;;4949752;28;20052;-66
2022/05/20 11:10:40;;;;;;;7.77;2.90;;;;;;;;;;4951015;28;20106;-66
2022/05/20 11:13:11;;;;;;;7.38;2.95;;;;;;;;;;4947071;28;20051;-66
2022/05/20 11:15:45;;;;;;;7.05;3.20;;;;;;;;;;4932456;29;20117;-66
2022/05/20 11:18:23;;;;;;;8.43;3.30;;;;;;;;;;4950722;28;20498;-66
2022/05/20 11:21:05;;;;;;;5.43;2.90;;;;;;;;;;4949877;28;20055;-66
2022/05/20 11:23:47;;;;;;;6.47;3.10;;;;;;;;;;4946705;28;20098;-66
2022/05/20 11:26:23;;;;;;;6.15;3.35;;;;;;;;;;4946642;28;20043;-66
2022/05/20 11:28:57;;;;;;;6.13;3.10;;;;;;;;;;4940886;28;20059;-66
2022/05/20 11:31:36;;;;;;;6.05;3.22;;;;;;;;;;4931095;29;20073;-66
2022/05/20 11:34:12;;;;;;;8.00;3.72;;;;;;;;;;4945127;28;20497;-66
2022/05/20 11:36:52;;;;;;;6.68;3.83;;;;;;;;;;4948724;28;20106;-66
2022/05/20 11:39:39;;;;;;;7.55;4.00;;;;;;;;;;4929090;28;20051;-67
2022/05/20 11:42:12;;;;;;;7.65;3.83;;;;;;;;;;4941128;28;20126;-67
2022/05/20 11:44:45;;;;;;;9.30;3.97;;;;;;;;;;4921610;28;20693;-67
2022/05/20 11:47:25;;;;;;;8.15;4.07;;;;;;;;;;4937952;29;20047;-67
2022/05/20 11:50:03;;;;;;;9.77;3.92;;;;;;;;;;4941952;28;20055;-67
2022/05/20 11:52:51;;;;;;;7.28;4.00;;;;;;;;;;4939777;29;20039;-67
2022/05/20 11:55:22;;;;;;;10.75;4.07;;;;;;;;;;4934967;28;20058;-67
2022/05/20 11:57:52;;;;;;;11.55;3.97;;;;;;;;;;4939102;28;20059;-67
2022/05/20 12:00:21;;;;;;;6.82;3.70;;;;;;;;;;4945355;28;20410;-67
2022/05/20 12:02:50;;;;;;;9.18;3.22;;;;;;;;;;4952809;28;20138;-67
2022/05/20 12:05:18;;;;;;;9.98;3.65;;;;;;;;;;4947999;28;20059;-67
2022/05/20 12:07:46;;;;;;;6.45;3.28;;;;;;;;;;4948794;28;20142;-67
2022/05/20 12:10:18;;;;;;;8.43;3.03;;;;;;;;;;4948643;29;20055;-67
2022/05/20 12:12:53;;;;;;;5.38;2.35;;;;;;;;;;4949065;28;20043;-67
2022/05/20 12:15:44;;;;;;;8.70;3.05;;;;;;;;;;4946270;29;20051;-67
2022/05/20 12:24:11;;;;;;;5.30;3.20;;;;;;;;;;4945207;28;20055;-67
2022/05/20 12:24:21;;;;;;;8.75;3.47;;;;;;;;;;4950253;28;20519;-67
2022/05/20 12:26:50;;;;;;;6.68;4.03;;;;;;;;;;4945712;28;20090;-67
2022/05/20 12:29:37;;;;;;;8.27;3.55;;;;;;;;;;4948894;28;20055;-67
2022/05/20 12:32:25;;;;;;;7.60;3.65;;;;;;;;;;4947774;28;20411;-67
2022/05/20 12:34:55;;;;;;;8.35;3.30;;;;;;;;;;4945479;28;20063;-67
2022/05/20 12:37:37;;;;;;;6.97;3.60;;;;;;;;;;4947776;28;20115;-66
2022/05/20 12:40:04;;;;;;;9.95;3.88;;;;;;;;;;4947265;28;20110;-66
2022/05/20 12:42:40;;;;;;;7.38;4.00;;;;;;;;;;4948880;28;20051;-66
2022/05/20 12:45:09;;;;;;;10.07;5.25;;;;;;;;;;4948938;28;20391;-65
2022/05/20 12:47:38;;;;;;;12.38;5.13;;;;;;;;;;4931552;29;20138;-65
2022/05/20 12:50:07;;;;;;;10.40;6.00;;;;;;;;;;4949452;28;20126;-66
2022/05/20 12:52:36;;;;;;;10.27;5.90;;;;;;;;;;4950334;28;20134;-65
2022/05/20 12:55:13;;;;;;;11.90;5.22;;;;;;;;;;4957534;28;20051;-66
2022/05/20 12:57:49;;;;;;;10.88;4.90;;;;;;;;;;4952523;28;20047;-66
2022/05/20 13:00:17;;;;;;;9.30;4.78;;;;;;;;;;4955324;28;20593;-66
2022/05/20 13:02:47;;;;;;;10.27;4.97;;;;;;;;;;4939103;28;20078;-66
2022/05/20 13:05:20;;;;;;;10.05;5.50;;;;;;;;;;4952265;28;20509;-67
2022/05/20 13:07:48;;;;;;;9.07;5.10;;;;;;;;;;4953486;28;20063;-66
2022/05/20 13:10:29;;;;;;;9.48;6.03;;;;;;;;;;4953829;28;20683;-66
2022/05/20 13:12:59;;;;;;;11.68;6.13;;;;;;;;;;4950422;28;20051;-66
2022/05/20 13:15:26;;;;;;;13.25;6.60;;;;;;;;;;4947811;28;20502;-66
2022/05/20 13:18:02;;;;;;;11.05;6.60;;;;;;;;;;4950498;29;20051;-66
2022/05/20 13:20:31;;;;;;;13.90;5.88;;;;;;;;;;4951987;28;20565;-67
2022/05/20 13:23:00;;;;;;;14.70;6.68;;;;;;;;;;4950180;28;20077;-66
2022/05/20 13:25:27;;;;;;;17.02;6.70;;;;;;;;;;4952202;28;20127;-66
2022/05/20 13:27:55;;;;;;;22.45;7.22;;;;;;;;;;4952231;28;20051;-66
2022/05/20 13:30:23;;;;;;;12.68;6.72;;;;;;;;;;4949394;28;20051;-66
2022/05/20 13:32:51;;;;;;;11.57;6.38;;;;;;;;;;4948172;28;20047;-66
2022/05/20 13:35:19;;;;;;;12.15;6.88;;;;;;;;;;4942508;28;20079;-66
2022/05/20 13:37:48;;;;;;;9.98;6.53;;;;;;;;;;4939117;28;20056;-66
2022/05/20 13:40:16;;;;;;;14.32;7.93;;;;;;;;;;4921315;29;20103;-66
2022/05/20 13:42:47;;;;;;;14.77;7.03;;;;;;;;;;4940400;28;20110;-66
2022/05/20 13:45:15;;;;;;;17.25;6.80;;;;;;;;;;4928625;29;20138;-66
2022/05/20 13:50:29;;;;;;;16.92;6.60;;;;;;;;;;4942925;28;20055;-66
2022/05/20 13:52:58;;;;;;;12.88;6.05;;;;;;;;;;4943181;28;20070;-66
2022/05/20 13:55:29;;;;;;;15.40;6.60;;;;;;;;;;4941004;28;20051;-66
2022/05/20 13:57:57;;;;;;;16.77;8.90;;;;;;;;;;4930875;29;20386;-66
2022/05/20 14:00:29;;;;;;;38.47;10.65;;;;;;;;;;4943596;28;20051;-66
2022/05/20 14:03:00;;;;;;;33.80;12.70;;;;;;;;;;4946575;28;20059;-66
2022/05/20 14:05:32;;;;;;;21.60;11.32;;;;;;;;;;4945652;28;20053;-66
2022/05/20 14:08:00;;;;;;;48.50;19.23;;;;;;;;;;4945748;28;20051;-66
2022/05/20 14:10:32;;;;;;;37.55;13.98;;;;;;;;;;4943755;28;20059;-66
2022/05/20 14:13:03;;;;;;;19.83;12.48;;;;;;;;;;4931085;29;20051;-66
2022/05/20 14:15:40;;;;;;;19.08;11.45;;;;;;;;;;4946839;28;20434;-66
2022/05/20 14:18:11;;;;;;;14.50;9.20;;;;;;;;;;4941519;28;20055;-66
2022/05/20 14:20:41;;;;;;;22.00;15.57;;;;;;;;;;4945938;28;20154;-66
2022/05/20 14:23:08;;;;;;;10.82;7.25;;;;;;;;;;4928188;29;20491;-66
2022/05/20 14:25:47;;;;;;;11.25;6.68;;;;;;;;;;4927818;29;20503;-66
2022/05/20 14:28:15;;;;;;;17.45;6.53;;;;;;;;;;4944661;28;20046;-66
2022/05/20 14:30:43;;;;;;;7.68;4.50;;;;;;;;;;4945861;28;20110;-66
2022/05/20 14:33:12;;;;;;;10.98;6.18;;;;;;;;;;4944924;28;20046;-66
2022/05/20 14:35:43;;;;;;;9.75;6.13;;;;;;;;;;4946514;28;20047;-67
2022/05/20 14:38:13;;;;;;;10.70;5.65;;;;;;;;;;4944044;28;20058;-67
2022/05/20 14:40:42;;;;;;;7.30;5.40;;;;;;;;;;4945916;28;20054;-67
2022/05/20 14:43:17;;;;;;;7.47;4.68;;;;;;;;;;4945051;28;20129;-66
2022/05/20 14:45:51;;;;;;;7.95;4.82;;;;;;;;;;4944360;28;20053;-67
2022/05/20 14:48:20;;;;;;;11.30;5.60;;;;;;;;;;4944633;28;20502;-66
2022/05/20 14:50:49;;;;;;;15.73;6.72;;;;;;;;;;4945981;28;20059;-66
2022/05/20 14:53:22;;;;;;;16.30;6.60;;;;;;;;;;4944688;28;20058;-65
2022/05/20 14:55:50;;;;;;;9.98;5.25;;;;;;;;;;4946692;28;20067;-65
2022/05/20 14:58:27;;;;;;;9.07;5.60;;;;;;;;;;4944225;28;20063;-65
2022/05/20 15:00:54;;;;;;;9.38;5.32;;;;;;;;;;4946824;28;20118;-66
2022/05/20 15:03:22;;;;;;;13.80;5.22;;;;;;;;;;4945888;28;20051;-65
2022/05/20 15:05:53;;;;;;;10.50;5.88;;;;;;;;;;4944038;29;20051;-65
2022/05/20 15:08:21;;;;;;;13.40;7.10;;;;;;;;;;4924099;28;20055;-65
2022/05/20 15:10:55;;;;;;;16.27;5.60;;;;;;;;;;4945783;28;20145;-64
2022/05/20 15:13:23;;;;;;;8.00;5.60;;;;;;;;;;4926236;29;20069;-64
2022/05/20 15:15:50;;;;;;;13.10;5.90;;;;;;;;;;4944863;28;20070;-64
2022/05/20 15:18:17;;;;;;;14.45;4.88;;;;;;;;;;4946334;28;20629;-64
2022/05/20 15:20:45;;;;;;;9.77;5.15;;;;;;;;;;4942922;29;20102;-64
2022/05/20 15:23:17;;;;;;;14.52;5.50;;;;;;;;;;4942014;29;20047;-64